sensor_id;sensor_type;location;lat;lon;timestamp;temperature;humidity
6186;DHT22;3126;52.738;8.316;2022-08-01T00:01:05;18.60;99.90
6186;DHT22;3126;52.738;8.316;2022-08-01T00:06:05;18.60;99.90
6186;DHT22;3126;52.738;8.316;2022-08-01T00:11:06;18.60;99.90
6186;DHT22;3126;52.738;8.316;2022-08-01T00:31:11;18.50;99.90
6186;DHT22;3126;52.738;8.316;2022-08-01T00:36:11;18.50;99.90
6186;DHT22;3126;52.738;8.316;2022-08-01T00:41:13;18.40;99.90
6186;DHT22;3126;52.738;8.316;2022-08-01T00:46:13;18.40;99.90
6186;DHT22;3126;52.738;8.316;2022-08-01T00:51:16;18.30;99.90
6186;DHT22;3126;52.738;8.316;2022-08-01T00:56:20;18.30;99.90
6186;DHT22;3126;52.738;8.316;2022-08-01T01:01:22;18.30;99.90
6186;DHT22;3126;52.738;8.316;2022-08-01T01:12:02;18.30;99.90
6186;DHT22;3126;52.738;8.316;2022-08-01T01:17:07;18.30;99.90
6186;DHT22;3126;52.738;8.316;2022-08-01T01:22:41;18.30;99.90
6186;DHT22;3126;52.738;8.316;2022-08-01T01:28:10;18.30;99.90
6186;DHT22;3126;52.738;8.316;2022-08-01T01:33:13;18.30;99.90
6186;DHT22;3126;52.738;8.316;2022-08-01T01:38:21;18.30;99.90
6186;DHT22;3126;52.738;8.316;2022-08-01T01:43:24;18.30;99.90
6186;DHT22;3126;52.738;8.316;2022-08-01T01:48:27;18.30;99.90
6186;DHT22;3126;52.738;8.316;2022-08-01T01:53:33;18.20;99.90
6186;DHT22;3126;52.738;8.316;2022-08-01T01:58:35;18.20;99.90
6186;DHT22;3126;52.738;8.316;2022-08-01T02:04:12;18.20;99.90
6186;DHT22;3126;52.738;8.316;2022-08-01T02:09:16;18.10;99.90
6186;DHT22;3126;52.738;8.316;2022-08-01T02:14:18;18.10;99.90
6186;DHT22;3126;52.738;8.316;2022-08-01T02:19:22;18.00;99.90
6186;DHT22;3126;52.738;8.316;2022-08-01T02:24:36;18.00;99.90
6186;DHT22;3126;52.738;8.316;2022-08-01T02:29:43;18.00;99.90
6186;DHT22;3126;52.738;8.316;2022-08-01T02:34:46;18.00;99.90
6186;DHT22;3126;52.738;8.316;2022-08-01T02:45:51;17.90;99.90
6186;DHT22;3126;52.738;8.316;2022-08-01T02:50:55;18.00;99.90
6186;DHT22;3126;52.738;8.316;2022-08-01T02:55:57;18.00;99.90
6186;DHT22;3126;52.738;8.316;2022-08-01T03:00:58;17.90;99.90
6186;DHT22;3126;52.738;8.316;2022-08-01T03:06:01;17.90;99.90
6186;DHT22;3126;52.738;8.316;2022-08-01T03:11:03;17.90;99.90
6186;DHT22;3126;52.738;8.316;2022-08-01T03:16:05;17.90;99.90
6186;DHT22;3126;52.738;8.316;2022-08-01T03:21:07;17.90;99.90
6186;DHT22;3126;52.738;8.316;2022-08-01T03:26:09;17.90;99.90
6186;DHT22;3126;52.738;8.316;2022-08-01T03:31:12;17.90;99.90
6186;DHT22;3126;52.738;8.316;2022-08-01T03:36:14;17.90;99.90
6186;DHT22;3126;52.738;8.316;2022-08-01T03:41:19;17.90;99.90
6186;DHT22;3126;52.738;8.316;2022-08-01T03:46:29;17.90;99.90
6186;DHT22;3126;52.738;8.316;2022-08-01T03:51:30;17.90;99.90
6186;DHT22;3126;52.738;8.316;2022-08-01T03:56:32;17.90;99.90
6186;DHT22;3126;52.738;8.316;2022-08-01T04:01:34;17.90;99.90
6186;DHT22;3126;52.738;8.316;2022-08-01T04:06:38;17.80;99.90
6186;DHT22;3126;52.738;8.316;2022-08-01T04:11:38;17.70;99.90
6186;DHT22;3126;52.738;8.316;2022-08-01T04:16:40;17.70;99.90
6186;DHT22;3126;52.738;8.316;2022-08-01T04:21:40;17.70;99.90
6186;DHT22;3126;52.738;8.316;2022-08-01T04:26:44;17.70;99.90
6186;DHT22;3126;52.738;8.316;2022-08-01T04:31:46;17.70;99.90
6186;DHT22;3126;52.738;8.316;2022-08-01T04:36:49;17.70;99.90
6186;DHT22;3126;52.738;8.316;2022-08-01T04:41:50;17.70;99.90
6186;DHT22;3126;52.738;8.316;2022-08-01T04:46:52;17.70;99.90
6186;DHT22;3126;52.738;8.316;2022-08-01T04:51:55;17.70;99.90
6186;DHT22;3126;52.738;8.316;2022-08-01T04:57:00;17.70;99.90
6186;DHT22;3126;52.738;8.316;2022-08-01T05:02:01;17.70;99.90
6186;DHT22;3126;52.738;8.316;2022-08-01T05:07:02;17.70;99.90
6186;DHT22;3126;52.738;8.316;2022-08-01T05:12:04;17.70;99.90
6186;DHT22;3126;52.738;8.316;2022-08-01T05:17:07;17.60;99.90
6186;DHT22;3126;52.738;8.316;2022-08-01T05:22:08;17.50;99.90
6186;DHT22;3126;52.738;8.316;2022-08-01T05:27:09;17.40;99.90
6186;DHT22;3126;52.738;8.316;2022-08-01T05:32:10;17.20;99.90
6186;DHT22;3126;52.738;8.316;2022-08-01T05:37:10;17.20;99.90
6186;DHT22;3126;52.738;8.316;2022-08-01T05:42:11;17.20;99.90
6186;DHT22;3126;52.738;8.316;2022-08-01T05:47:12;17.30;99.90
6186;DHT22;3126;52.738;8.316;2022-08-01T05:52:12;17.30;99.90
6186;DHT22;3126;52.738;8.316;2022-08-01T05:57:13;17.40;99.90
6186;DHT22;3126;52.738;8.316;2022-08-01T06:02:13;17.60;99.90
6186;DHT22;3126;52.738;8.316;2022-08-01T06:07:14;17.70;99.60
6186;DHT22;3126;52.738;8.316;2022-08-01T06:12:15;17.80;99.00
6186;DHT22;3126;52.738;8.316;2022-08-01T06:17:15;17.90;97.20
6186;DHT22;3126;52.738;8.316;2022-08-01T06:22:16;17.80;96.80
6186;DHT22;3126;52.738;8.316;2022-08-01T06:27:17;17.80;96.60
6186;DHT22;3126;52.738;8.316;2022-08-01T06:32:17;17.80;96.00
6186;DHT22;3126;52.738;8.316;2022-08-01T06:37:18;17.90;95.50
6186;DHT22;3126;52.738;8.316;2022-08-01T06:42:19;18.00;94.80
6186;DHT22;3126;52.738;8.316;2022-08-01T06:47:19;18.10;94.30
6186;DHT22;3126;52.738;8.316;2022-08-01T06:52:20;18.10;93.70
6186;DHT22;3126;52.738;8.316;2022-08-01T06:57:21;18.10;94.20
6186;DHT22;3126;52.738;8.316;2022-08-01T07:02:22;18.10;94.10
6186;DHT22;3126;52.738;8.316;2022-08-01T07:07:23;17.90;94.00
6186;DHT22;3126;52.738;8.316;2022-08-01T07:12:23;17.80;93.20
6186;DHT22;3126;52.738;8.316;2022-08-01T07:17:24;17.70;92.90
6186;DHT22;3126;52.738;8.316;2022-08-01T07:22:24;17.70;92.10
6186;DHT22;3126;52.738;8.316;2022-08-01T07:27:26;17.70;91.20
6186;DHT22;3126;52.738;8.316;2022-08-01T07:32:27;17.70;91.40
6186;DHT22;3126;52.738;8.316;2022-08-01T07:37:29;17.70;92.20
6186;DHT22;3126;52.738;8.316;2022-08-01T07:42:30;17.70;91.20
6186;DHT22;3126;52.738;8.316;2022-08-01T07:47:31;17.60;89.90
6186;DHT22;3126;52.738;8.316;2022-08-01T07:52:31;17.50;89.60
6186;DHT22;3126;52.738;8.316;2022-08-01T07:57:32;17.50;89.30
6186;DHT22;3126;52.738;8.316;2022-08-01T08:02:33;17.70;88.70
6186;DHT22;3126;52.738;8.316;2022-08-01T08:07:33;17.80;89.20
6186;DHT22;3126;52.738;8.316;2022-08-01T08:12:34;17.80;86.90
6186;DHT22;3126;52.738;8.316;2022-08-01T08:17:34;17.70;86.50
6186;DHT22;3126;52.738;8.316;2022-08-01T08:22:36;17.80;86.10
6186;DHT22;3126;52.738;8.316;2022-08-01T08:27:37;17.80;86.20
6186;DHT22;3126;52.738;8.316;2022-08-01T08:32:38;17.80;85.90
6186;DHT22;3126;52.738;8.316;2022-08-01T08:37:39;18.20;84.00
6186;DHT22;3126;52.738;8.316;2022-08-01T10:54:27;19.00;80.00
6186;DHT22;3126;52.738;8.316;2022-08-01T10:59:29;23.70;57.20
6186;DHT22;3126;52.738;8.316;2022-08-01T11:20:09;23.60;55.30
6186;DHT22;3126;52.738;8.316;2022-08-01T11:25:10;23.60;56.20
6186;DHT22;3126;52.738;8.316;2022-08-01T11:35:12;23.30;55.00
6186;DHT22;3126;52.738;8.316;2022-08-01T11:40:20;23.40;57.30
6186;DHT22;3126;52.738;8.316;2022-08-01T11:45:21;23.70;57.00
6186;DHT22;3126;52.738;8.316;2022-08-01T11:50:42;23.80;54.50
6186;DHT22;3126;52.738;8.316;2022-08-01T12:00:56;23.80;55.60
6186;DHT22;3126;52.738;8.316;2022-08-01T12:05:58;23.60;56.30
6186;DHT22;3126;52.738;8.316;2022-08-01T12:11:03;23.70;54.90
6186;DHT22;3126;52.738;8.316;2022-08-01T12:16:08;23.60;56.50
6186;DHT22;3126;52.738;8.316;2022-08-01T12:21:08;23.60;55.00
6186;DHT22;3126;52.738;8.316;2022-08-01T12:26:09;23.60;55.40
6186;DHT22;3126;52.738;8.316;2022-08-01T12:31:09;23.70;54.40
6186;DHT22;3126;52.738;8.316;2022-08-01T12:36:10;23.50;54.60
6186;DHT22;3126;52.738;8.316;2022-08-01T12:41:11;23.30;54.20
6186;DHT22;3126;52.738;8.316;2022-08-01T12:46:12;23.40;54.80
6186;DHT22;3126;52.738;8.316;2022-08-01T13:06:32;23.20;54.60
6186;DHT22;3126;52.738;8.316;2022-08-01T13:11:35;23.00;55.00
6186;DHT22;3126;52.738;8.316;2022-08-01T13:16:46;23.00;55.30
6186;DHT22;3126;52.738;8.316;2022-08-01T13:21:55;22.90;54.60
6186;DHT22;3126;52.738;8.316;2022-08-01T13:27:00;23.10;54.20
6186;DHT22;3126;52.738;8.316;2022-08-01T13:32:22;23.20;53.60
6186;DHT22;3126;52.738;8.316;2022-08-01T13:37:23;23.10;52.60
6186;DHT22;3126;52.738;8.316;2022-08-01T13:42:23;23.00;53.80
6186;DHT22;3126;52.738;8.316;2022-08-01T13:47:24;23.10;54.00
6186;DHT22;3126;52.738;8.316;2022-08-01T13:52:24;23.10;54.30
6186;DHT22;3126;52.738;8.316;2022-08-01T13:57:25;23.20;53.40
6186;DHT22;3126;52.738;8.316;2022-08-01T14:02:27;23.40;53.70
6186;DHT22;3126;52.738;8.316;2022-08-01T14:07:27;23.20;52.60
6186;DHT22;3126;52.738;8.316;2022-08-01T14:12:28;23.10;54.80
6186;DHT22;3126;52.738;8.316;2022-08-01T14:17:29;23.00;53.90
6186;DHT22;3126;52.738;8.316;2022-08-01T14:22:29;23.10;54.80
6186;DHT22;3126;52.738;8.316;2022-08-01T14:27:30;23.20;53.10
6186;DHT22;3126;52.738;8.316;2022-08-01T14:32:31;23.20;52.90
6186;DHT22;3126;52.738;8.316;2022-08-01T14:37:33;23.40;54.80
6186;DHT22;3126;52.738;8.316;2022-08-01T14:42:34;23.10;52.60
6186;DHT22;3126;52.738;8.316;2022-08-01T14:47:39;23.20;53.50
6186;DHT22;3126;52.738;8.316;2022-08-01T14:52:40;23.20;52.90
6186;DHT22;3126;52.738;8.316;2022-08-01T14:57:42;23.20;52.40
6186;DHT22;3126;52.738;8.316;2022-08-01T15:02:43;23.20;53.50
6186;DHT22;3126;52.738;8.316;2022-08-01T15:07:44;23.20;53.40
6186;DHT22;3126;52.738;8.316;2022-08-01T15:32:49;23.00;53.40
6186;DHT22;3126;52.738;8.316;2022-08-01T15:37:50;22.60;54.80
6186;DHT22;3126;52.738;8.316;2022-08-01T15:42:50;22.50;53.30
6186;DHT22;3126;52.738;8.316;2022-08-01T15:47:52;22.60;56.00
6186;DHT22;3126;52.738;8.316;2022-08-01T15:52:53;22.80;53.20
6186;DHT22;3126;52.738;8.316;2022-08-01T15:57:54;22.90;53.10
6186;DHT22;3126;52.738;8.316;2022-08-01T16:02:54;22.80;51.50
6186;DHT22;3126;52.738;8.316;2022-08-01T16:07:56;22.60;52.90
6186;DHT22;3126;52.738;8.316;2022-08-01T16:12:56;22.40;53.90
6186;DHT22;3126;52.738;8.316;2022-08-01T16:17:57;22.40;52.80
6186;DHT22;3126;52.738;8.316;2022-08-01T16:22:57;22.40;52.70
6186;DHT22;3126;52.738;8.316;2022-08-01T16:38:00;22.40;53.00
6186;DHT22;3126;52.738;8.316;2022-08-01T16:43:01;22.10;52.00
6186;DHT22;3126;52.738;8.316;2022-08-01T16:48:02;22.00;53.50
6186;DHT22;3126;52.738;8.316;2022-08-01T16:53:02;21.90;55.10
6186;DHT22;3126;52.738;8.316;2022-08-01T17:08:07;21.80;57.20
6186;DHT22;3126;52.738;8.316;2022-08-01T17:13:07;21.80;57.60
6186;DHT22;3126;52.738;8.316;2022-08-01T17:18:08;21.80;58.10
6186;DHT22;3126;52.738;8.316;2022-08-01T17:23:08;21.80;56.30
6186;DHT22;3126;52.738;8.316;2022-08-01T17:28:09;21.80;56.80
6186;DHT22;3126;52.738;8.316;2022-08-01T17:33:10;21.70;55.40
6186;DHT22;3126;52.738;8.316;2022-08-01T17:38:10;21.60;55.00
6186;DHT22;3126;52.738;8.316;2022-08-01T20:49:50;21.40;54.00
6186;DHT22;3126;52.738;8.316;2022-08-01T20:54:51;15.40;72.60
6186;DHT22;3126;52.738;8.316;2022-08-01T21:00:01;15.30;73.80
6186;DHT22;3126;52.738;8.316;2022-08-01T21:10:06;15.20;74.10
6186;DHT22;3126;52.738;8.316;2022-08-01T21:15:10;15.00;74.50
6186;DHT22;3126;52.738;8.316;2022-08-01T21:20:13;14.90;75.30
6186;DHT22;3126;52.738;8.316;2022-08-01T21:25:16;14.90;75.40
6186;DHT22;3126;52.738;8.316;2022-08-01T21:30:22;14.80;76.00
6186;DHT22;3126;52.738;8.316;2022-08-01T21:35:25;14.70;76.00
6186;DHT22;3126;52.738;8.316;2022-08-01T21:40:26;14.60;76.00
6186;DHT22;3126;52.738;8.316;2022-08-01T22:00:47;14.20;77.50
6186;DHT22;3126;52.738;8.316;2022-08-01T22:05:51;14.00;77.80
6186;DHT22;3126;52.738;8.316;2022-08-01T22:26:01;13.90;79.20
6186;DHT22;3126;52.738;8.316;2022-08-01T22:31:03;13.70;79.60
6186;DHT22;3126;52.738;8.316;2022-08-01T22:41:14;13.60;80.50
6186;DHT22;3126;52.738;8.316;2022-08-01T22:46:36;13.40;81.10
